Moreno Valley, California
Current Conditions -  °F | °C
As of 4:58 PM on Monday 22 Dec 2014 (Local Time) from KRIV Reporting Station
Clear Clear  
Wind Chill: 63°   Ceiling: Unl
Heat Index: 63°   Visibility: 10mi
Dew Point: 51°   Wind: 5mph
Humidity: 66%   Direction: 320°NW
Pressure: 29.98"   Gusts: NA
Location:  33.92°N, 117.26°W
Report Text: KRIV 230058Z AUTO 32004KT 10SM CLR 17/11 A2998 RMK AO2 SLP150 T01730108
Loading
Personal Weather Stations






























Interactive Weather Map New forecast layout! Learn more

10-Day Weather Forecast

Advertisements
Track Severe Weather on mobile